createdAt,value
2019-04-07T00:01:48.464Z,7.17
2019-04-07T00:06:57.632Z,6.72
2019-04-07T00:12:07.209Z,7.37
2019-04-07T00:17:16.090Z,6.85
2019-04-07T00:22:25.381Z,6.94
2019-04-07T00:27:34.239Z,7.27
2019-04-07T00:32:43.131Z,7.22
2019-04-07T00:37:52.120Z,7.20
2019-04-07T00:43:00.830Z,7.36
2019-04-07T00:48:09.056Z,6.80
2019-04-07T00:53:17.828Z,6.84
2019-04-07T00:58:27.124Z,6.90
2019-04-07T01:03:35.054Z,7.15
2019-04-07T01:08:43.944Z,7.63
2019-04-07T01:13:52.821Z,7.94
2019-04-07T01:19:04.625Z,8.04
2019-04-07T01:24:02.621Z,8.49
2019-04-07T01:29:11.445Z,8.46
2019-04-07T01:34:20.669Z,8.59
2019-04-07T01:39:28.642Z,7.98
2019-04-07T01:44:37.522Z,8.42
2019-04-07T01:49:46.607Z,8.25
2019-04-07T01:54:55.922Z,8.44
2019-04-07T02:00:03.646Z,8.30
2019-04-07T02:05:12.497Z,8.71
2019-04-07T02:10:21.351Z,8.20
2019-04-07T02:15:30.247Z,7.93
2019-04-07T02:20:39.055Z,8.39
2019-04-07T02:25:48.073Z,8.34
2019-04-07T02:30:57.327Z,7.99
2019-04-07T02:36:15.604Z,7.91
2019-04-07T02:41:13.588Z,8.53
2019-04-07T02:46:22.451Z,8.08
2019-04-07T02:51:31.943Z,8.76
2019-04-07T02:56:40.996Z,8.23
2019-04-07T03:01:49.484Z,8.50
2019-04-07T03:06:57.095Z,8.12
2019-04-07T03:12:07.165Z,8.30
2019-04-07T03:17:14.364Z,8.82
2019-04-07T03:22:23.767Z,8.33
2019-04-07T03:27:31.621Z,8.17
2019-04-07T03:32:42.909Z,8.17
2019-04-07T03:37:49.052Z,8.44
2019-04-07T03:42:57.419Z,8.55
2019-04-07T03:48:07.048Z,8.82
2019-04-07T03:53:15.775Z,9.11
2019-04-07T03:58:23.143Z,9.59
2019-04-07T04:03:32.225Z,9.62
2019-04-07T04:08:41.784Z,9.10
2019-04-07T04:13:50.902Z,10.07
2019-04-07T04:18:58.765Z,9.74
2019-04-07T04:24:08.288Z,10.50
2019-04-07T04:29:15.723Z,10.29
2019-04-07T04:34:25.111Z,10.19
2019-04-07T04:39:33.527Z,10.66
2019-04-07T04:44:42.138Z,10.77
2019-04-07T04:49:50.976Z,10.32
2019-04-07T04:55:00.549Z,10.26
2019-04-07T05:00:08.859Z,10.36
2019-04-07T05:05:18.194Z,10.66
2019-04-07T05:10:26.578Z,10.53
2019-04-07T05:15:35.108Z,11.57
2019-04-07T05:20:42.907Z,11.47
2019-04-07T05:25:55.708Z,11.96
2019-04-07T05:30:54.270Z,11.59
2019-04-07T05:36:02.066Z,10.54
2019-04-07T05:41:11.791Z,10.28
2019-04-07T05:46:20.175Z,10.12
2019-04-07T05:51:30.106Z,10.80
2019-04-07T05:56:37.012Z,11.12
2019-04-07T06:01:46.665Z,10.62
2019-04-07T06:06:56.199Z,10.76
2019-04-07T06:12:05.952Z,10.77
2019-04-07T06:17:12.044Z,10.46
2019-04-07T06:22:20.767Z,10.31
2019-04-07T06:27:29.773Z,10.02
2019-04-07T06:32:37.880Z,10.80
2019-04-07T06:37:45.519Z,10.73
2019-04-07T06:42:54.536Z,10.73
2019-04-07T06:48:07.461Z,10.86
2019-04-07T06:53:17.034Z,10.91
2019-04-07T06:58:20.848Z,11.85
2019-04-07T07:03:33.648Z,12.98
2019-04-07T07:08:45.980Z,12.81
2019-04-07T07:13:42.942Z,13.37
2019-04-07T07:18:53.638Z,12.82
2019-04-07T07:23:58.938Z,13.03
2019-04-07T07:29:06.794Z,13.24
2019-04-07T07:34:16.340Z,12.77
2019-04-07T07:39:24.090Z,14.97
2019-04-07T07:44:35.869Z,12.58
2019-04-07T07:49:42.304Z,13.03
2019-04-07T07:54:49.784Z,13.17
2019-04-07T07:59:58.670Z,13.23
2019-04-07T08:05:08.096Z,14.30
2019-04-07T08:10:16.918Z,15.27
2019-04-07T08:15:26.244Z,14.20
2019-04-07T08:20:31.749Z,14.65
2019-04-07T08:25:40.782Z,15.90
2019-04-07T08:30:49.081Z,15.58
2019-04-07T08:35:57.751Z,15.84
2019-04-07T08:41:08.182Z,15.35
2019-04-07T08:46:14.174Z,15.83
2019-04-07T08:51:23.069Z,15.73
2019-04-07T08:56:32.002Z,15.97
2019-04-07T09:01:40.502Z,17.27
2019-04-07T09:06:49.346Z,18.75
2019-04-07T09:11:58.285Z,18.79
2019-04-07T09:17:07.209Z,17.03
2019-04-07T09:22:15.423Z,19.51
2019-04-07T09:27:24.425Z,19.90
2019-04-07T09:32:31.855Z,21.07
2019-04-07T09:37:41.639Z,21.10
2019-04-07T09:42:49.606Z,21.59
2019-04-07T09:47:59.964Z,22.25
2019-04-07T09:53:07.923Z,22.65
2019-04-07T09:58:23.773Z,22.45
2019-04-07T10:03:21.927Z,22.76
2019-04-07T10:08:37.378Z,23.85
2019-04-07T10:13:35.119Z,24.21
2019-04-07T10:18:46.451Z,24.81
2019-04-07T10:23:45.632Z,23.53
2019-04-07T10:28:53.140Z,25.02
2019-04-07T10:34:01.823Z,24.32
2019-04-07T10:39:09.598Z,23.53
2019-04-07T10:44:19.370Z,26.33
2019-04-07T10:49:28.006Z,25.42
2019-04-07T10:54:37.139Z,25.70
2019-04-07T10:59:46.472Z,25.12
2019-04-07T11:04:55.066Z,27.62
2019-04-07T11:10:03.644Z,27.71
2019-04-07T11:15:11.313Z,30.29
2019-04-07T11:20:21.434Z,27.40
2019-04-07T11:25:29.529Z,29.22
2019-04-07T11:30:37.697Z,27.64
2019-04-07T11:35:47.534Z,27.23
2019-04-07T11:40:55.606Z,28.25
2019-04-07T11:46:05.690Z,28.44
2019-04-07T11:51:14.051Z,28.59
2019-04-07T11:56:22.826Z,28.72
2019-04-07T12:01:31.479Z,28.56
2019-04-07T12:06:40.456Z,29.52
2019-04-07T12:11:49.418Z,30.45
2019-04-07T12:16:59.372Z,29.96
2019-04-07T12:22:10.114Z,30.06
2019-04-07T12:27:16.115Z,31.96
2019-04-07T12:32:24.873Z,31.60
2019-04-07T12:37:35.040Z,32.40
2019-04-07T12:42:41.722Z,34.01
2019-04-07T12:47:49.718Z,32.80
2019-04-07T12:53:02.157Z,30.82
2019-04-07T12:58:10.757Z,33.03
2019-04-07T13:03:15.651Z,33.64
2019-04-07T13:08:24.568Z,31.61
2019-04-07T13:13:33.883Z,30.60
2019-04-07T13:18:40.515Z,33.47
2019-04-07T13:23:49.310Z,39.59
2019-04-07T13:28:58.697Z,31.89
2019-04-07T13:34:06.907Z,32.40
2019-04-07T13:39:15.896Z,33.03
2019-04-07T13:44:24.854Z,32.84
2019-04-07T13:49:34.159Z,32.36
2019-04-07T13:54:42.281Z,33.09
2019-04-07T13:59:51.095Z,33.14
2019-04-07T14:05:00.935Z,33.47
2019-04-07T14:10:09.080Z,33.14
2019-04-07T14:15:16.963Z,32.90
2019-04-07T14:20:25.828Z,33.85
2019-04-07T14:25:35.600Z,36.15
2019-04-07T14:30:43.420Z,35.17
2019-04-07T14:35:52.284Z,39.86
2019-04-07T14:41:01.249Z,39.06
2019-04-07T14:46:10.498Z,34.98
2019-04-07T14:51:19.656Z,36.33
2019-04-07T14:56:28.488Z,36.16
2019-04-07T15:01:37.862Z,36.40
2019-04-07T15:06:45.969Z,37.33
2019-04-07T15:11:56.400Z,38.27
2019-04-07T15:17:04.716Z,38.94
2019-04-07T15:22:13.234Z,38.75
2019-04-07T15:27:24.374Z,38.63
2019-04-07T15:32:30.085Z,38.76
2019-04-07T15:37:39.794Z,40.93
2019-04-07T15:42:49.997Z,42.55
2019-04-07T15:47:55.250Z,41.10
2019-04-07T15:53:03.351Z,42.99
2019-04-07T15:58:13.537Z,44.71
2019-04-07T16:03:15.078Z,43.57
2019-04-07T16:08:27.881Z,46.25
2019-04-07T16:13:23.879Z,47.68
2019-04-07T16:18:31.921Z,45.09
2019-04-07T16:23:40.683Z,45.02
2019-04-07T16:28:49.696Z,44.85
2019-04-07T16:33:59.200Z,43.94
2019-04-07T16:39:09.304Z,42.93
2019-04-07T16:44:16.961Z,43.91
2019-04-07T16:49:24.766Z,44.61
2019-04-07T16:54:33.960Z,44.31
2019-04-07T16:59:43.514Z,43.39
2019-04-07T17:04:54.708Z,44.70
2019-04-07T17:09:54.950Z,43.64
2019-04-07T17:15:04.568Z,43.26
2019-04-07T17:20:14.621Z,42.37
2019-04-07T17:25:12.476Z,43.34
2019-04-07T17:30:24.371Z,41.71
2019-04-07T17:35:31.138Z,40.90
2019-04-07T17:40:38.582Z,41.11
2019-04-07T17:45:52.057Z,40.45
2019-04-07T17:50:50.899Z,41.05
2019-04-07T17:55:50.608Z,39.59
2019-04-07T18:00:58.558Z,38.64
2019-04-07T18:06:11.184Z,39.37
2019-04-07T18:11:09.777Z,39.16
2019-04-07T18:16:17.490Z,39.18
2019-04-07T18:21:26.652Z,37.86
2019-04-07T18:26:38.738Z,39.45
2019-04-07T18:31:44.295Z,38.23
2019-04-07T18:36:53.176Z,36.66
2019-04-07T18:42:03.517Z,37.39
2019-04-07T18:47:10.832Z,36.19
2019-04-07T18:52:22.747Z,36.87
2019-04-07T18:57:30.515Z,36.97
2019-04-07T19:02:38.447Z,37.20
2019-04-07T19:07:48.663Z,36.41
2019-04-07T19:13:05.055Z,35.55
2019-04-07T19:18:04.872Z,35.72
2019-04-07T19:23:12.953Z,36.45
2019-04-07T19:28:23.075Z,36.17
2019-04-07T19:33:30.808Z,36.44
2019-04-07T19:38:39.884Z,35.55
2019-04-07T19:43:48.706Z,36.60
2019-04-07T19:48:57.631Z,36.35
2019-04-07T19:54:06.719Z,35.42
2019-04-07T19:59:15.457Z,35.71
2019-04-07T20:04:24.827Z,36.88
2019-04-07T20:09:33.008Z,34.64
2019-04-07T20:14:49.954Z,35.42
2019-04-07T20:19:51.320Z,37.94
2019-04-07T20:25:01.354Z,35.74
2019-04-07T20:30:03.695Z,37.02
2019-04-07T20:35:03.291Z,41.41
2019-04-07T20:40:11.468Z,38.83
2019-04-07T20:45:22.496Z,40.02
2019-04-07T20:50:29.264Z,36.46
2019-04-07T20:55:39.547Z,33.25
2019-04-07T21:00:55.021Z,31.75
2019-04-07T21:05:55.991Z,32.22
2019-04-07T21:11:05.635Z,33.07
2019-04-07T21:16:11.675Z,30.84
2019-04-07T21:21:22.008Z,31.05
2019-04-07T21:26:30.839Z,30.58
2019-04-07T21:31:37.744Z,32.17
2019-04-07T21:36:46.725Z,31.26
2019-04-07T21:41:56.288Z,30.83
2019-04-07T21:47:05.176Z,29.69
2019-04-07T21:52:18.403Z,29.34
2019-04-07T21:57:23.464Z,30.17
2019-04-07T22:02:31.328Z,28.95
2019-04-07T22:07:38.209Z,29.77
2019-04-07T22:12:47.781Z,29.53
2019-04-07T22:17:56.276Z,29.25
2019-04-07T22:23:06.265Z,28.72
2019-04-07T22:28:13.765Z,30.80
2019-04-07T22:33:25.227Z,31.56
2019-04-07T22:38:31.468Z,37.14
2019-04-07T22:43:39.241Z,29.79
2019-04-07T22:48:48.080Z,29.79
2019-04-07T22:53:57.786Z,29.45
2019-04-07T22:59:06.021Z,29.99
2019-04-07T23:04:12.487Z,29.84
2019-04-07T23:09:21.868Z,29.32
2019-04-07T23:14:29.898Z,29.53
2019-04-07T23:19:39.857Z,29.92
2019-04-07T23:24:47.503Z,29.82
2019-04-07T23:29:56.989Z,29.46
2019-04-07T23:35:06.004Z,29.91
2019-04-07T23:40:14.077Z,28.98
2019-04-07T23:45:23.127Z,29.71
2019-04-07T23:50:31.794Z,29.55
2019-04-07T23:55:31.453Z,29.60
